Time;durP1;ratioP1;P1;durP2;ratioP2;P2;SDS_P1;SDS_P2;PMS_P1;PMS_P2;Temp;Humidity;BMP_temperature;BMP_pressure;BME280_temperature;BME280_humidity;BME280_pressure;Samples;Min_cycle;Max_cycle;Signal;HPM_P1;HPM_P2
2023/09/15 00:00:44;;;;;;;;;;;12.90;60.10;;;;;;5053907;28;19912;-67
2023/09/15 00:03:09;;;;;;;;;;;12.80;60.20;;;;;;5054115;28;19928;-67
2023/09/15 00:05:37;;;;;;;;;;;12.80;60.30;;;;;;5053486;28;19908;-67
2023/09/15 00:08:04;;;;;;;;;;;12.80;60.50;;;;;;5053995;28;19912;-68
2023/09/15 00:10:38;;;;;;;;;;;12.80;60.40;;;;;;5055795;28;19939;-68
2023/09/15 00:13:04;;;;;;;;;;;12.80;60.50;;;;;;5073706;28;20334;-67
2023/09/15 00:15:29;;;;;;;;;;;12.80;60.50;;;;;;5073505;28;19960;-67
2023/09/15 00:17:55;;;;;;;;;;;12.70;60.60;;;;;;5073450;28;19920;-67
2023/09/15 00:20:20;;;;;;;;;;;12.70;60.70;;;;;;5073569;28;19916;-67
2023/09/15 00:22:48;;;;;;;;;;;12.70;60.70;;;;;;5073740;28;20435;-67
2023/09/15 00:25:14;;;;;;;;;;;12.70;60.80;;;;;;5073059;28;19961;-67
2023/09/15 00:27:40;;;;;;;;;;;12.70;60.80;;;;;;5073646;28;19912;-68
2023/09/15 00:30:05;;;;;;;;;;;12.70;60.90;;;;;;5073440;28;19917;-67
2023/09/15 00:32:31;;;;;;;;;;;12.70;61.00;;;;;;5073260;28;20378;-67
2023/09/15 00:34:56;;;;;;;;;;;12.70;61.10;;;;;;5072726;28;19979;-68
2023/09/15 00:37:22;;;;;;;;;;;12.70;61.20;;;;;;5073179;28;19924;-67
2023/09/15 00:39:47;;;;;;;;;;;12.70;61.20;;;;;;5072649;28;20004;-67
2023/09/15 00:42:13;;;;;;;;;;;12.60;61.30;;;;;;5072933;28;19960;-67
2023/09/15 00:44:38;;;;;;;;;;;12.60;61.40;;;;;;5072922;28;19912;-68
2023/09/15 00:47:04;;;;;;;;;;;12.60;61.60;;;;;;5052724;28;20443;-68
2023/09/15 00:49:29;;;;;;;;;;;12.60;61.60;;;;;;5052739;28;19913;-68
2023/09/15 00:51:55;;;;;;;;;;;12.50;61.70;;;;;;5052769;28;19913;-68
2023/09/15 00:54:21;;;;;;;;;;;12.50;61.80;;;;;;5052660;28;20280;-66
2023/09/15 00:56:47;;;;;;;;;;;12.50;61.90;;;;;;5052241;28;20191;-66
2023/09/15 00:59:14;;;;;;;;;;;12.50;62.10;;;;;;5052309;28;19915;-66
2023/09/15 01:01:40;;;;;;;;;;;12.50;62.20;;;;;;5052329;28;19924;-67
2023/09/15 01:04:08;;;;;;;;;;;12.50;62.20;;;;;;5052169;28;19920;-66
2023/09/15 01:06:34;;;;;;;;;;;12.50;62.20;;;;;;5052215;28;19920;-67
2023/09/15 01:09:00;;;;;;;;;;;12.50;62.40;;;;;;5052451;28;19959;-66
2023/09/15 01:11:27;;;;;;;;;;;12.40;62.40;;;;;;5060761;28;19920;-67
2023/09/15 01:13:52;;;;;;;;;;;12.40;62.40;;;;;;5072101;28;19913;-67
2023/09/15 01:16:39;;;;;;;;;;;12.40;62.50;;;;;;5070696;28;19917;-67
2023/09/15 01:19:18;;;;;;;;;;;12.30;62.60;;;;;;5072561;28;20433;-67
2023/09/15 01:21:50;;;;;;;;;;;12.30;62.70;;;;;;5072050;28;20427;-67
2023/09/15 01:24:25;;;;;;;;;;;12.30;62.90;;;;;;5071940;28;19908;-67
2023/09/15 01:27:09;;;;;;;;;;;12.30;63.10;;;;;;5071643;28;20455;-67
2023/09/15 01:29:39;;;;;;;;;;;12.30;63.30;;;;;;5072010;28;19934;-67
2023/09/15 01:32:12;;;;;;;;;;;12.20;63.30;;;;;;5072207;28;20326;-67
2023/09/15 01:34:38;;;;;;;;;;;12.20;63.30;;;;;;5071858;28;20387;-68
2023/09/15 01:37:04;;;;;;;;;;;12.20;63.40;;;;;;5070547;28;20363;-67
2023/09/15 01:39:30;;;;;;;;;;;12.20;63.50;;;;;;5071759;28;19961;-67
2023/09/15 01:41:57;;;;;;;;;;;12.20;63.60;;;;;;5071657;28;20010;-67
2023/09/15 01:44:22;;;;;;;;;;;12.10;63.90;;;;;;5071718;28;19923;-67
2023/09/15 01:46:48;;;;;;;;;;;12.10;64.10;;;;;;5052512;28;19917;-67
2023/09/15 01:49:13;;;;;;;;;;;12.10;64.30;;;;;;5051689;28;20361;-67
2023/09/15 01:51:39;;;;;;;;;;;12.10;64.60;;;;;;5051763;28;20322;-67
2023/09/15 01:54:05;;;;;;;;;;;12.10;64.90;;;;;;5051607;28;19913;-67
2023/09/15 01:56:30;;;;;;;;;;;12.20;65.10;;;;;;5051490;28;20280;-67
2023/09/15 01:58:56;;;;;;;;;;;12.20;65.30;;;;;;5051206;28;20282;-68
2023/09/15 02:01:21;;;;;;;;;;;12.20;65.50;;;;;;5051377;28;19920;-68
2023/09/15 02:03:47;;;;;;;;;;;12.20;65.60;;;;;;5051070;28;20004;-68
2023/09/15 02:06:16;;;;;;;;;;;12.20;65.70;;;;;;5051263;28;19927;-68
2023/09/15 02:08:43;;;;;;;;;;;12.20;65.80;;;;;;5051509;28;19956;-68
2023/09/15 02:11:08;;;;;;;;;;;12.20;65.80;;;;;;5058997;28;20017;-68
2023/09/15 02:13:36;;;;;;;;;;;12.20;65.80;;;;;;5071436;28;20386;-68
2023/09/15 02:16:01;;;;;;;;;;;12.20;65.70;;;;;;5071126;28;20296;-68
2023/09/15 02:18:27;;;;;;;;;;;12.20;65.60;;;;;;5071078;28;19918;-68
2023/09/15 02:20:55;;;;;;;;;;;12.10;65.50;;;;;;5071069;28;20295;-68
2023/09/15 02:23:21;;;;;;;;;;;12.10;65.60;;;;;;5071570;28;19916;-68
2023/09/15 02:25:47;;;;;;;;;;;12.10;65.80;;;;;;5071025;28;19909;-68
2023/09/15 02:28:13;;;;;;;;;;;12.10;65.90;;;;;;5071886;28;20270;-68
2023/09/15 02:30:38;;;;;;;;;;;12.10;66.00;;;;;;5071216;28;19923;-68
2023/09/15 02:33:04;;;;;;;;;;;12.10;66.20;;;;;;5071318;28;20271;-68
2023/09/15 02:35:29;;;;;;;;;;;12.10;66.50;;;;;;5071020;28;19916;-67
2023/09/15 02:37:55;;;;;;;;;;;12.20;66.90;;;;;;5071206;28;19920;-68
2023/09/15 02:40:24;;;;;;;;;;;12.20;67.30;;;;;;5071123;28;19908;-67
2023/09/15 02:42:49;;;;;;;;;;;12.30;67.60;;;;;;5071262;28;20342;-67
2023/09/15 02:45:15;;;;;;;;;;;12.40;67.90;;;;;;5066762;28;19909;-67
2023/09/15 02:47:40;;;;;;;;;;;12.50;68.00;;;;;;5049653;28;20011;-67
2023/09/15 02:50:07;;;;;;;;;;;12.60;68.20;;;;;;5050997;28;20364;-68
2023/09/15 02:52:33;;;;;;;;;;;12.70;68.30;;;;;;5051239;28;19927;-68
2023/09/15 02:54:58;;;;;;;;;;;12.70;68.30;;;;;;5050819;28;19909;-68
2023/09/15 02:57:24;;;;;;;;;;;12.80;68.20;;;;;;5050984;28;19924;-67
2023/09/15 02:59:52;;;;;;;;;;;12.90;68.20;;;;;;5050696;28;20003;-68
2023/09/15 03:02:20;;;;;;;;;;;13.00;68.10;;;;;;5051117;28;19923;-68
2023/09/15 03:04:46;;;;;;;;;;;13.00;68.00;;;;;;5051053;28;20372;-66
2023/09/15 03:07:12;;;;;;;;;;;13.00;68.00;;;;;;5050764;28;20360;-67
2023/09/15 03:09:37;;;;;;;;;;;13.00;68.00;;;;;;5050702;28;19916;-67
2023/09/15 03:12:03;;;;;;;;;;;13.10;68.10;;;;;;5065451;28;19921;-66
2023/09/15 03:14:29;;;;;;;;;;;13.10;68.10;;;;;;5070657;28;19999;-66
2023/09/15 03:16:55;;;;;;;;;;;13.10;68.10;;;;;;5071948;28;20055;-67
2023/09/15 03:19:21;;;;;;;;;;;13.20;68.30;;;;;;5074363;28;19908;-66
2023/09/15 03:21:46;;;;;;;;;;;13.20;68.40;;;;;;5074422;28;19917;-67
2023/09/15 03:24:12;;;;;;;;;;;13.30;68.50;;;;;;5074116;28;20288;-67
2023/09/15 03:26:39;;;;;;;;;;;13.30;68.50;;;;;;5074185;28;19916;-67
2023/09/15 03:29:04;;;;;;;;;;;13.40;68.50;;;;;;5073872;28;20368;-67
2023/09/15 03:31:30;;;;;;;;;;;13.40;68.50;;;;;;5074142;28;19970;-67
2023/09/15 03:33:56;;;;;;;;;;;13.50;68.50;;;;;;5073850;28;19913;-67
2023/09/15 03:36:21;;;;;;;;;;;13.50;68.50;;;;;;5074137;28;20015;-67
2023/09/15 03:38:47;;;;;;;;;;;13.50;68.40;;;;;;5073734;28;20352;-67
2023/09/15 03:41:12;;;;;;;;;;;13.60;68.40;;;;;;5073812;28;19966;-67
2023/09/15 03:43:38;;;;;;;;;;;13.60;68.30;;;;;;5073741;28;19961;-67
2023/09/15 03:46:03;;;;;;;;;;;13.60;68.30;;;;;;5062188;28;19909;-67
2023/09/15 03:48:29;;;;;;;;;;;13.60;68.20;;;;;;5053772;28;19917;-67
2023/09/15 03:50:55;;;;;;;;;;;13.60;68.20;;;;;;5053726;28;19909;-66
2023/09/15 03:53:20;;;;;;;;;;;13.60;68.20;;;;;;5054223;28;19923;-67
2023/09/15 03:55:48;;;;;;;;;;;13.50;68.10;;;;;;5053543;28;20318;-67
2023/09/15 03:58:14;;;;;;;;;;;13.50;68.00;;;;;;5053694;28;19921;-67
2023/09/15 04:00:40;;;;;;;;;;;13.50;67.90;;;;;;5053576;28;19961;-67
2023/09/15 04:03:08;;;;;;;;;;;13.50;67.70;;;;;;5052241;28;20561;-67
2023/09/15 04:05:34;;;;;;;;;;;13.50;67.50;;;;;;5052024;28;19909;-67
2023/09/15 04:07:59;;;;;;;;;;;13.50;67.30;;;;;;5053482;28;20054;-67
2023/09/15 04:10:24;;;;;;;;;;;13.40;67.10;;;;;;5055024;28;19909;-67
2023/09/15 04:12:50;;;;;;;;;;;13.30;66.80;;;;;;5073457;28;19916;-67
2023/09/15 04:15:16;;;;;;;;;;;13.30;66.60;;;;;;5073273;28;19919;-68
2023/09/15 04:17:42;;;;;;;;;;;13.20;66.40;;;;;;5073436;28;19924;-68
2023/09/15 04:20:09;;;;;;;;;;;13.10;66.30;;;;;;5073190;28;20260;-68
2023/09/15 04:22:44;;;;;;;;;;;13.00;66.30;;;;;;5073400;28;19916;-68
2023/09/15 04:25:11;;;;;;;;;;;13.00;66.30;;;;;;5073162;28;20352;-68
2023/09/15 04:27:37;;;;;;;;;;;12.90;66.30;;;;;;5073016;28;19917;-68
2023/09/15 04:30:02;;;;;;;;;;;12.90;66.30;;;;;;5072903;28;19935;-68
2023/09/15 04:32:28;;;;;;;;;;;12.80;66.30;;;;;;5073413;28;19916;-68
2023/09/15 04:34:54;;;;;;;;;;;12.80;66.30;;;;;;5072862;28;19916;-68
2023/09/15 04:37:20;;;;;;;;;;;12.70;66.30;;;;;;5072956;28;19921;-68
2023/09/15 04:39:47;;;;;;;;;;;12.70;66.30;;;;;;5072737;28;20391;-68
2023/09/15 04:42:12;;;;;;;;;;;12.70;66.40;;;;;;5066263;28;20361;-69
2023/09/15 04:44:38;;;;;;;;;;;12.60;66.40;;;;;;5052694;28;19908;-68
2023/09/15 04:47:04;;;;;;;;;;;12.60;66.40;;;;;;5052908;28;20245;-68
2023/09/15 04:49:29;;;;;;;;;;;12.60;66.30;;;;;;5052845;28;19909;-68
2023/09/15 04:51:55;;;;;;;;;;;12.50;66.20;;;;;;5052768;28;19917;-68
2023/09/15 04:54:20;;;;;;;;;;;12.50;66.20;;;;;;5052724;28;20364;-68
2023/09/15 04:56:46;;;;;;;;;;;12.50;66.50;;;;;;5052595;28;20016;-69
2023/09/15 04:59:18;;;;;;;;;;;12.50;66.60;;;;;;5052349;28;20335;-69
2023/09/15 05:01:45;;;;;;;;;;;12.50;66.70;;;;;;5052938;28;19916;-69
2023/09/15 05:04:10;;;;;;;;;;;12.50;66.70;;;;;;5051973;28;20186;-69
2023/09/15 05:06:36;;;;;;;;;;;12.40;66.60;;;;;;5069077;28;19970;-70
2023/09/15 05:09:05;;;;;;;;;;;12.40;66.50;;;;;;5071973;28;19908;-69
2023/09/15 05:11:30;;;;;;;;;;;12.40;66.60;;;;;;5072097;28;19920;-70
2023/09/15 05:13:56;;;;;;;;;;;12.40;66.80;;;;;;5056427;28;20007;-69
2023/09/15 05:16:22;;;;;;;;;;;12.50;66.80;;;;;;5052191;28;20342;-69
2023/09/15 05:18:47;;;;;;;;;;;12.50;67.00;;;;;;5051884;28;20368;-69
2023/09/15 05:21:13;;;;;;;;;;;12.50;67.30;;;;;;5052005;28;19909;-69
2023/09/15 05:23:38;;;;;;;;;;;12.60;67.70;;;;;;5052224;28;19963;-69
2023/09/15 05:26:04;;;;;;;;;;;12.70;68.20;;;;;;5052086;28;19919;-67
2023/09/15 05:28:30;;;;;;;;;;;12.80;68.70;;;;;;5051980;28;19916;-67
2023/09/15 05:31:02;;;;;;;;;;;13.20;69.10;;;;;;5051890;28;19909;-68
2023/09/15 05:33:27;;;;;;;;;;;13.40;69.40;;;;;;5060396;28;19917;-67
2023/09/15 05:35:54;;;;;;;;;;;13.80;69.70;;;;;;5052569;28;20269;-68
2023/09/15 05:38:20;;;;;;;;;;;14.20;70.00;;;;;;5050228;28;19928;-68
2023/09/15 05:40:45;;;;;;;;;;;14.50;70.30;;;;;;5050880;28;19912;-68
2023/09/15 05:43:11;;;;;;;;;;;14.90;70.40;;;;;;5051110;28;19920;-68
2023/09/15 05:45:36;;;;;;;;;;;15.30;70.40;;;;;;5054151;28;19948;-68
2023/09/15 05:48:02;;;;;;;;;;;15.70;70.20;;;;;;5050089;28;19929;-68
2023/09/15 05:50:28;;;;;;;;;;;16.00;69.60;;;;;;5051569;28;20388;-68
2023/09/15 05:52:53;;;;;;;;;;;16.00;68.80;;;;;;5050547;28;19917;-68
2023/09/15 05:55:18;;;;;;;;;;;16.10;68.50;;;;;;5055792;28;20294;-68
2023/09/15 05:57:44;;;;;;;;;;;16.30;69.40;;;;;;5051634;28;19921;-68
2023/09/15 06:00:11;;;;;;;;;;;16.70;70.10;;;;;;5053439;28;21372;-68
2023/09/15 06:02:37;;;;;;;;;;;17.00;70.10;;;;;;5052525;28;19912;-69
2023/09/15 06:05:02;;;;;;;;;;;17.40;70.00;;;;;;5055510;28;19920;-68
2023/09/15 06:07:28;;;;;;;;;;;17.70;69.60;;;;;;5064455;28;19936;-67
2023/09/15 06:09:53;;;;;;;;;;;17.90;69.60;;;;;;5065822;28;20292;-69
2023/09/15 06:12:19;;;;;;;;;;;18.30;70.20;;;;;;5063536;28;19979;-68
2023/09/15 06:14:45;;;;;;;;;;;18.70;70.50;;;;;;5071158;28;20015;-67
2023/09/15 06:17:12;;;;;;;;;;;19.20;70.60;;;;;;5071253;28;19915;-68
2023/09/15 06:19:37;;;;;;;;;;;19.60;70.40;;;;;;5070426;28;19916;-68
2023/09/15 06:22:03;;;;;;;;;;;20.10;70.40;;;;;;5062884;28;19912;-70
2023/09/15 06:24:28;;;;;;;;;;;20.50;70.20;;;;;;5065730;28;19921;-69
2023/09/15 06:26:54;;;;;;;;;;;20.90;70.10;;;;;;5055754;28;19920;-68
2023/09/15 06:29:21;;;;;;;;;;;21.30;69.60;;;;;;5070049;28;19917;-68
2023/09/15 06:31:47;;;;;;;;;;;21.80;69.30;;;;;;5071409;28;19913;-68
2023/09/15 06:34:12;;;;;;;;;;;22.20;69.10;;;;;;5058606;28;20308;-69
2023/09/15 06:36:39;;;;;;;;;;;22.60;68.20;;;;;;5051340;28;19913;-69
2023/09/15 06:39:06;;;;;;;;;;;23.00;68.70;;;;;;5067940;28;20018;-68
2023/09/15 06:41:32;;;;;;;;;;;23.40;68.30;;;;;;5071048;28;20303;-68
2023/09/15 06:43:57;;;;;;;;;;;23.80;67.90;;;;;;5061960;28;20031;-69
2023/09/15 06:46:23;;;;;;;;;;;24.20;67.80;;;;;;5064479;28;19936;-67
2023/09/15 06:48:49;;;;;;;;;;;24.70;67.70;;;;;;5064693;28;19920;-67
2023/09/15 06:51:14;;;;;;;;;;;25.10;67.30;;;;;;5073710;28;19908;-68
2023/09/15 06:53:40;;;;;;;;;;;25.50;66.70;;;;;;5073601;28;20015;-69
2023/09/15 06:56:05;;;;;;;;;;;25.90;66.50;;;;;;5061090;28;19917;-69
2023/09/15 06:58:30;;;;;;;;;;;26.30;65.80;;;;;;5064974;28;20417;-69
2023/09/15 07:00:56;;;;;;;;;;;26.60;65.00;;;;;;5063638;28;20388;-68
2023/09/15 07:03:22;;;;;;;;;;;26.80;64.90;;;;;;5063999;28;20064;-68
2023/09/15 07:05:47;;;;;;;;;;;27.00;64.20;;;;;;5060490;28;19912;-69
2023/09/15 07:08:13;;;;;;;;;;;27.30;64.00;;;;;;5055099;28;19913;-70
2023/09/15 07:10:38;;;;;;;;;;;27.40;63.60;;;;;;5070366;28;20375;-70
2023/09/15 07:13:04;;;;;;;;;;;27.70;64.70;;;;;;5075822;28;19913;-70
2023/09/15 07:15:32;;;;;;;;;;;28.00;64.70;;;;;;5069203;28;20379;-70
2023/09/15 07:17:58;;;;;;;;;;;28.40;66.00;;;;;;5072726;28;19927;-71
2023/09/15 07:20:23;;;;;;;;;;;28.70;65.00;;;;;;5063315;28;19913;-71
2023/09/15 07:22:48;;;;;;;;;;;28.90;62.90;;;;;;5056790;28;20008;-71
2023/09/15 07:25:14;;;;;;;;;;;28.90;62.50;;;;;;5067141;28;20002;-70
2023/09/15 07:27:39;;;;;;;;;;;29.10;63.00;;;;;;5078610;28;19916;-70
2023/09/15 07:30:05;;;;;;;;;;;29.20;62.50;;;;;;5079518;28;20367;-71
2023/09/15 07:32:31;;;;;;;;;;;29.30;63.30;;;;;;5079525;28;20351;-70
2023/09/15 07:34:56;;;;;;;;;;;29.60;62.80;;;;;;5074454;28;19927;-71
2023/09/15 07:37:21;;;;;;;;;;;29.70;61.50;;;;;;5058206;28;19967;-70
2023/09/15 07:39:47;;;;;;;;;;;29.80;60.90;;;;;;5075627;28;19924;-71
2023/09/15 07:42:12;;;;;;;;;;;29.90;58.50;;;;;;5076830;28;19967;-71
2023/09/15 07:44:40;;;;;;;;;;;30.00;59.50;;;;;;5068513;28;19916;-71
2023/09/15 07:47:06;;;;;;;;;;;30.10;58.70;;;;;;5073505;28;19946;-69
2023/09/15 07:49:32;;;;;;;;;;;30.40;59.00;;;;;;5074976;28;19920;-71
2023/09/15 07:51:57;;;;;;;;;;;30.70;59.30;;;;;;5074782;28;19923;-70
2023/09/15 07:54:24;;;;;;;;;;;31.00;59.70;;;;;;5073800;28;19920;-69
2023/09/15 07:56:49;;;;;;;;;;;31.20;57.70;;;;;;5070983;28;19916;-71
2023/09/15 07:59:15;;;;;;;;;;;31.50;57.50;;;;;;5066781;28;20011;-71
2023/09/15 08:01:40;;;;;;;;;;;31.80;56.00;;;;;;5077540;28;19912;-71
2023/09/15 08:04:06;;;;;;;;;;;32.00;54.60;;;;;;5069140;28;19927;-71
2023/09/15 08:06:31;;;;;;;;;;;32.20;51.30;;;;;;5061340;28;20011;-71
2023/09/15 08:08:57;;;;;;;;;;;32.30;51.50;;;;;;5068247;28;19940;-71
2023/09/15 08:11:22;;;;;;;;;;;32.60;51.10;;;;;;5061919;28;19923;-72
2023/09/15 08:13:47;;;;;;;;;;;32.80;51.00;;;;;;5070955;28;20379;-71
2023/09/15 08:16:13;;;;;;;;;;;33.10;48.20;;;;;;5069825;28;19912;-71
2023/09/15 08:18:39;;;;;;;;;;;33.30;46.20;;;;;;5061150;28;20402;-71
2023/09/15 08:21:05;;;;;;;;;;;33.40;44.60;;;;;;5064643;28;19998;-72
2023/09/15 08:23:30;;;;;;;;;;;33.60;44.10;;;;;;5064006;28;20353;-71
2023/09/15 08:25:56;;;;;;;;;;;33.80;43.00;;;;;;5071006;28;19909;-71
2023/09/15 08:28:24;;;;;;;;;;;34.00;41.70;;;;;;5068480;28;20249;-71
2023/09/15 08:30:50;;;;;;;;;;;34.20;41.40;;;;;;5069089;28;20330;-70
2023/09/15 08:33:15;;;;;;;;;;;34.30;39.70;;;;;;5067162;28;19920;-70
2023/09/15 08:35:41;;;;;;;;;;;34.40;38.70;;;;;;5058866;28;19920;-70
2023/09/15 08:38:07;;;;;;;;;;;34.50;37.90;;;;;;5071986;28;19920;-70
2023/09/15 08:40:37;;;;;;;;;;;34.70;37.80;;;;;;5068403;28;19920;-69
2023/09/15 08:43:03;;;;;;;;;;;34.90;36.70;;;;;;5068109;28;20359;-70
2023/09/15 08:45:30;;;;;;;;;;;35.10;37.00;;;;;;5055525;28;19916;-70
2023/09/15 08:47:56;;;;;;;;;;;35.30;36.50;;;;;;5060777;28;20283;-70
2023/09/15 08:50:22;;;;;;;;;;;35.50;36.30;;;;;;5053956;28;20031;-70
2023/09/15 08:52:49;;;;;;;;;;;35.50;34.40;;;;;;5057131;28;20042;-70
2023/09/15 08:55:15;;;;;;;;;;;35.50;32.70;;;;;;5069314;28;19925;-70
2023/09/15 08:57:40;;;;;;;;;;;35.30;33.40;;;;;;5073367;28;20259;-70
2023/09/15 09:00:08;;;;;;;;;;;35.40;33.60;;;;;;5070505;28;19923;-70
2023/09/15 09:02:34;;;;;;;;;;;35.70;33.00;;;;;;5071823;28;20465;-70
2023/09/15 09:04:59;;;;;;;;;;;35.70;33.00;;;;;;5061529;28;19932;-70
2023/09/15 09:07:25;;;;;;;;;;;35.80;32.10;;;;;;5071745;28;20003;-70
2023/09/15 09:09:51;;;;;;;;;;;35.80;32.20;;;;;;5066024;28;19921;-70
2023/09/15 09:12:16;;;;;;;;;;;35.80;32.20;;;;;;5054163;28;19917;-70
2023/09/15 09:14:42;;;;;;;;;;;35.90;31.90;;;;;;5067764;28;19977;-70
2023/09/15 09:17:08;;;;;;;;;;;35.90;30.80;;;;;;5064216;28;19920;-70
2023/09/15 09:19:34;;;;;;;;;;;35.80;30.60;;;;;;5071641;28;19912;-70
2023/09/15 09:22:00;;;;;;;;;;;35.80;31.50;;;;;;5070874;28;19913;-70
2023/09/15 09:24:25;;;;;;;;;;;35.80;29.10;;;;;;5068126;28;19977;-70
2023/09/15 09:26:54;;;;;;;;;;;35.30;28.50;;;;;;5059201;28;20280;-70
2023/09/15 09:29:27;;;;;;;;;;;35.00;29.20;;;;;;5073488;28;20013;-70
2023/09/15 09:31:53;;;;;;;;;;;34.80;29.10;;;;;;5073459;28;19923;-70
2023/09/15 09:34:18;;;;;;;;;;;34.70;29.80;;;;;;5072253;28;20383;-70
2023/09/15 09:36:51;;;;;;;;;;;34.70;30.50;;;;;;5067025;28;19916;-70
2023/09/15 09:39:16;;;;;;;;;;;34.90;30.30;;;;;;5067167;28;19924;-70
2023/09/15 09:41:43;;;;;;;;;;;35.00;29.90;;;;;;5056603;28;19924;-70
2023/09/15 09:44:09;;;;;;;;;;;35.00;29.50;;;;;;5068247;28;20348;-70
2023/09/15 09:46:36;;;;;;;;;;;34.80;30.00;;;;;;5069030;28;19962;-70
2023/09/15 09:49:01;;;;;;;;;;;35.00;29.90;;;;;;5068861;28;19990;-70
2023/09/15 09:51:28;;;;;;;;;;;35.20;30.10;;;;;;5073132;28;19916;-70
2023/09/15 09:53:55;;;;;;;;;;;35.20;29.00;;;;;;5069517;28;19923;-70
2023/09/15 09:56:21;;;;;;;;;;;35.20;29.50;;;;;;5063545;28;20481;-70
2023/09/15 09:58:47;;;;;;;;;;;35.20;29.50;;;;;;5052880;28;19920;-70
2023/09/15 10:01:13;;;;;;;;;;;35.20;28.60;;;;;;5070688;28;20001;-70
2023/09/15 10:03:40;;;;;;;;;;;35.00;29.20;;;;;;5072680;28;19916;-69
2023/09/15 10:06:06;;;;;;;;;;;35.10;29.40;;;;;;5060736;28;20042;-70
2023/09/15 10:08:32;;;;;;;;;;;35.20;29.10;;;;;;5064066;28;20362;-69
2023/09/15 10:10:57;;;;;;;;;;;35.20;29.00;;;;;;5062713;28;20269;-69
2023/09/15 10:13:23;;;;;;;;;;;35.30;29.40;;;;;;5060347;28;19916;-70
2023/09/15 10:15:50;;;;;;;;;;;35.50;29.40;;;;;;5054452;28;19928;-69
2023/09/15 10:18:17;;;;;;;;;;;35.70;28.90;;;;;;5067433;28;20392;-70
2023/09/15 10:20:44;;;;;;;;;;;35.60;28.50;;;;;;5062375;28;19928;-70
2023/09/15 10:23:10;;;;;;;;;;;35.40;28.30;;;;;;5059649;28;20315;-70
2023/09/15 10:25:54;;;;;;;;;;;35.10;28.20;;;;;;5055738;28;19921;-69
2023/09/15 10:28:21;;;;;;;;;;;34.90;28.70;;;;;;5073546;28;19913;-69
2023/09/15 10:30:47;;;;;;;;;;;35.00;29.20;;;;;;5073732;28;19924;-70
2023/09/15 10:33:12;;;;;;;;;;;35.10;28.70;;;;;;5074438;28;19966;-70
2023/09/15 10:35:39;;;;;;;;;;;35.10;28.90;;;;;;5069697;28;20019;-69
2023/09/15 10:38:05;;;;;;;;;;;35.20;28.90;;;;;;5072742;28;19956;-69
2023/09/15 10:40:46;;;;;;;;;;;35.20;28.60;;;;;;5070974;28;19955;-69
2023/09/15 10:43:12;;;;;;;;;;;35.10;28.90;;;;;;5055582;28;20316;-70
2023/09/15 10:45:38;;;;;;;;;;;35.20;28.70;;;;;;5065253;28;19923;-70
2023/09/15 10:48:04;;;;;;;;;;;35.20;29.00;;;;;;5074053;28;19951;-70
2023/09/15 10:50:33;;;;;;;;;;;35.20;29.20;;;;;;5072910;28;20455;-70
2023/09/15 10:53:12;;;;;;;;;;;35.30;28.70;;;;;;5070492;28;20257;-70
2023/09/15 10:55:38;;;;;;;;;;;35.20;28.80;;;;;;5058347;28;19924;-70
2023/09/15 10:58:04;;;;;;;;;;;34.90;28.90;;;;;;5065722;28;20360;-70
2023/09/15 11:00:30;;;;;;;;;;;34.90;29.40;;;;;;5067853;28;19916;-70
2023/09/15 11:02:56;;;;;;;;;;;35.10;29.30;;;;;;5068357;28;19952;-70
2023/09/15 11:05:21;;;;;;;;;;;35.30;29.40;;;;;;5067593;28;19951;-69
2023/09/15 11:07:48;;;;;;;;;;;35.50;29.50;;;;;;5071853;28;20151;-68
2023/09/15 11:10:13;;;;;;;;;;;35.50;28.30;;;;;;5056874;28;19917;-69
2023/09/15 11:12:39;;;;;;;;;;;35.30;28.50;;;;;;5060081;28;20011;-70
2023/09/15 11:15:05;;;;;;;;;;;35.30;29.00;;;;;;5068778;28;19925;-69
2023/09/15 11:17:31;;;;;;;;;;;35.30;28.90;;;;;;5060419;28;20274;-68
2023/09/15 11:19:57;;;;;;;;;;;35.30;28.70;;;;;;5064946;28;20016;-68
2023/09/15 11:22:23;;;;;;;;;;;35.30;29.10;;;;;;5074507;28;20291;-69
2023/09/15 11:24:52;;;;;;;;;;;35.40;28.90;;;;;;5071596;28;19920;-69
2023/09/15 11:27:17;;;;;;;;;;;35.40;28.80;;;;;;5060581;28;19964;-69
2023/09/15 11:29:43;;;;;;;;;;;35.40;28.60;;;;;;5077321;28;19919;-72
2023/09/15 11:32:08;;;;;;;;;;;35.40;29.20;;;;;;5069948;28;19921;-71
2023/09/15 11:34:35;;;;;;;;;;;35.50;29.30;;;;;;5076481;28;19916;-71
2023/09/15 11:37:01;;;;;;;;;;;35.40;28.60;;;;;;5062085;28;19917;-71
2023/09/15 11:39:28;;;;;;;;;;;35.20;28.70;;;;;;5075360;28;19927;-70
2023/09/15 11:41:53;;;;;;;;;;;35.00;29.10;;;;;;5062539;28;20394;-70
2023/09/15 11:44:29;;;;;;;;;;;35.00;28.80;;;;;;5065031;28;19916;-70
2023/09/15 11:46:56;;;;;;;;;;;34.80;29.30;;;;;;5063512;28;19917;-70
2023/09/15 11:49:22;;;;;;;;;;;34.70;29.40;;;;;;5067579;28;19912;-70
2023/09/15 11:51:48;;;;;;;;;;;34.50;28.90;;;;;;5073945;28;19912;-70
2023/09/15 11:54:13;;;;;;;;;;;34.00;29.20;;;;;;5073531;28;19912;-70
2023/09/15 11:56:39;;;;;;;;;;;33.70;29.70;;;;;;5070044;28;19920;-69
2023/09/15 11:59:05;;;;;;;;;;;33.50;30.10;;;;;;5067421;28;19923;-69
2023/09/15 12:01:31;;;;;;;;;;;33.50;30.50;;;;;;5070428;28;20371;-70
2023/09/15 12:03:57;;;;;;;;;;;33.30;30.40;;;;;;5070751;28;19928;-69
2023/09/15 12:06:23;;;;;;;;;;;33.10;30.80;;;;;;5068599;28;19977;-69
2023/09/15 12:08:49;;;;;;;;;;;33.10;30.10;;;;;;5065831;28;19913;-70
2023/09/15 12:11:15;;;;;;;;;;;33.00;29.30;;;;;;5055129;28;19976;-70
2023/09/15 12:13:41;;;;;;;;;;;33.00;29.80;;;;;;5055979;28;19920;-70
2023/09/15 12:16:07;;;;;;;;;;;33.20;30.00;;;;;;5062819;28;20001;-70
2023/09/15 12:18:36;;;;;;;;;;;33.30;29.90;;;;;;5073682;28;19927;-70
2023/09/15 12:21:02;;;;;;;;;;;33.50;29.00;;;;;;5075791;28;19948;-70
2023/09/15 12:23:28;;;;;;;;;;;33.50;28.80;;;;;;5075342;28;19916;-70
2023/09/15 12:25:53;;;;;;;;;;;33.40;28.80;;;;;;5066157;28;19952;-68
2023/09/15 12:28:19;;;;;;;;;;;33.20;28.80;;;;;;5064695;28;19927;-68
2023/09/15 12:30:47;;;;;;;;;;;33.10;28.60;;;;;;5070347;28;19920;-69
2023/09/15 12:33:16;;;;;;;;;;;32.80;28.70;;;;;;5061630;28;19966;-68
2023/09/15 12:35:42;;;;;;;;;;;32.70;28.90;;;;;;5061865;28;19928;-69
2023/09/15 12:38:09;;;;;;;;;;;32.40;29.10;;;;;;5069373;28;19958;-69
2023/09/15 12:40:35;;;;;;;;;;;32.20;29.60;;;;;;5067437;28;19916;-69
2023/09/15 12:43:01;;;;;;;;;;;32.20;30.10;;;;;;5057436;28;19912;-69
2023/09/15 12:45:27;;;;;;;;;;;32.30;30.30;;;;;;5058105;28;19921;-69
2023/09/15 12:47:52;;;;;;;;;;;32.30;29.60;;;;;;5065123;28;19923;-69
2023/09/15 12:50:18;;;;;;;;;;;32.30;29.70;;;;;;5071242;28;19913;-69
2023/09/15 12:52:44;;;;;;;;;;;32.20;29.40;;;;;;5064351;28;19929;-69
2023/09/15 12:55:09;;;;;;;;;;;32.10;29.50;;;;;;5066522;28;19925;-69
2023/09/15 12:57:35;;;;;;;;;;;32.00;29.70;;;;;;5068763;28;20390;-69
2023/09/15 13:00:01;;;;;;;;;;;31.70;30.00;;;;;;5053100;28;19920;-69
2023/09/15 13:02:27;;;;;;;;;;;31.50;30.30;;;;;;5056668;28;19923;-70
2023/09/15 13:04:53;;;;;;;;;;;31.50;30.70;;;;;;5063657;28;19917;-69
2023/09/15 13:07:18;;;;;;;;;;;31.50;31.10;;;;;;5068147;28;19920;-68
2023/09/15 13:09:43;;;;;;;;;;;31.50;30.40;;;;;;5060399;28;19920;-69
2023/09/15 13:12:09;;;;;;;;;;;31.40;30.40;;;;;;5061267;28;19920;-69
2023/09/15 13:14:34;;;;;;;;;;;31.20;30.50;;;;;;5067318;28;19948;-69
2023/09/15 13:17:00;;;;;;;;;;;31.00;30.50;;;;;;5057502;28;19925;-69
2023/09/15 13:19:25;;;;;;;;;;;30.80;30.70;;;;;;5068099;28;20481;-70
2023/09/15 13:21:51;;;;;;;;;;;30.70;30.90;;;;;;5052273;28;19923;-69
2023/09/15 13:24:16;;;;;;;;;;;30.60;31.20;;;;;;5062112;28;20018;-68
2023/09/15 13:26:42;;;;;;;;;;;30.40;31.50;;;;;;5059129;28;20007;-67
2023/09/15 13:29:07;;;;;;;;;;;30.30;31.70;;;;;;5071198;28;19955;-67
2023/09/15 13:31:33;;;;;;;;;;;30.10;31.90;;;;;;5071880;28;19962;-68
2023/09/15 13:33:59;;;;;;;;;;;29.90;32.20;;;;;;5067661;28;19916;-68
2023/09/15 13:36:25;;;;;;;;;;;29.70;32.40;;;;;;5059261;28;19921;-71
2023/09/15 13:38:51;;;;;;;;;;;29.40;32.80;;;;;;5056303;28;19970;-68
2023/09/15 13:41:16;;;;;;;;;;;29.20;33.10;;;;;;5060725;28;19916;-69
2023/09/15 13:43:42;;;;;;;;;;;29.10;33.30;;;;;;5062891;28;19932;-69
2023/09/15 13:46:08;;;;;;;;;;;28.90;33.60;;;;;;5066902;28;19991;-69
2023/09/15 13:48:34;;;;;;;;;;;28.70;33.90;;;;;;5064806;28;20360;-69
2023/09/15 13:50:59;;;;;;;;;;;28.70;34.30;;;;;;5051724;28;19912;-68
2023/09/15 13:53:25;;;;;;;;;;;28.60;34.90;;;;;;5069691;28;20003;-68
2023/09/15 13:55:52;;;;;;;;;;;28.40;35.30;;;;;;5060506;28;19924;-70
2023/09/15 13:58:18;;;;;;;;;;;28.40;35.40;;;;;;5064130;28;19916;-70
2023/09/15 14:00:59;;;;;;;;;;;28.30;35.50;;;;;;5050421;28;19971;-69
2023/09/15 14:03:25;;;;;;;;;;;28.30;35.70;;;;;;5066667;28;20355;-67
2023/09/15 14:05:51;;;;;;;;;;;28.20;36.10;;;;;;5056971;28;19952;-67
2023/09/15 14:08:17;;;;;;;;;;;28.10;36.10;;;;;;5065123;28;19924;-68
2023/09/15 14:10:42;;;;;;;;;;;28.00;36.30;;;;;;5050811;28;19917;-68